Time;durP1;ratioP1;P1;durP2;ratioP2;P2;SDS_P1;SDS_P2;PMS_P1;PMS_P2;Temp;Humidity;BMP_temperature;BMP_pressure;BME280_temperature;BME280_humidity;BME280_pressure;Samples;Min_cycle;Max_cycle;Signal;HPM_P1;HPM_P2
2022/03/31 00:00:46;;;;;;;19.63;8.30;;;;;;;15.30;44.36;95616.53;5095541;28;20934;-39
2022/03/31 00:03:15;;;;;;;9.03;5.77;;;;;;;15.29;44.55;95616.81;5095534;28;20433;-39
2022/03/31 00:05:44;;;;;;;10.40;5.60;;;;;;;15.26;44.47;95618.19;5095391;28;20443;-38
2022/03/31 00:08:13;;;;;;;6.97;5.53;;;;;;;15.23;44.84;95607.28;5095208;28;20893;-39
2022/03/31 00:10:44;;;;;;;16.87;7.90;;;;;;;15.19;45.10;95600.97;5095284;28;20517;-39
2022/03/31 00:13:13;;;;;;;11.17;6.27;;;;;;;15.15;44.87;95606.88;5095199;28;20457;-38
2022/03/31 00:15:41;;;;;;;7.10;5.87;;;;;;;14.96;45.31;95587.44;5095239;28;20458;-38
2022/03/31 00:18:11;;;;;;;23.90;6.63;;;;;;;15.09;45.50;95612.63;5095121;28;20477;-38
2022/03/31 00:34:07;;;;;;;13.67;6.40;;;;;;;14.85;45.51;95602.06;5095317;28;20738;-39
2022/03/31 00:36:34;;;;;;;17.03;8.43;;;;;;;14.82;45.73;95602.63;5094167;28;20444;-39
2022/03/31 00:41:46;;;;;;;19.63;8.03;;;;;;;14.72;46.34;95585.69;5094910;28;20411;-38
2022/03/31 00:44:14;;;;;;;14.97;8.07;;;;;;;14.68;46.65;95592.69;5094636;28;20533;-39
2022/03/31 00:46:49;;;;;;;20.90;10.90;;;;;;;14.63;46.81;95584.78;5094523;28;20914;-38
2022/03/31 00:49:19;;;;;;;26.83;10.00;;;;;;;14.60;46.81;95590.69;5094556;28;20977;-39
2022/03/31 00:51:47;;;;;;;27.97;10.87;;;;;;;14.21;46.67;95534.91;5094759;28;20485;-39
2022/03/31 00:54:16;;;;;;;22.20;9.30;;;;;;;14.55;47.24;95590.78;5094448;28;20478;-38
2022/03/31 00:56:44;;;;;;;29.40;10.20;;;;;;;14.54;47.64;95583.81;5094344;28;20496;-39
2022/03/31 00:59:12;;;;;;;27.97;12.20;;;;;;;14.51;47.40;95571.81;5094339;28;20504;-39
2022/03/31 01:01:40;;;;;;;27.50;14.30;;;;;;;14.51;47.14;95568.38;5094333;28;20443;-38
2022/03/31 01:04:08;;;;;;;20.63;11.10;;;;;;;14.51;46.87;95573.72;5094267;28;20974;-38
2022/03/31 01:06:37;;;;;;;28.80;11.70;;;;;;;14.48;46.51;95574.31;5094245;28;20447;-38
2022/03/31 01:09:06;;;;;;;21.77;10.73;;;;;;;14.48;46.19;95564.41;5094306;28;20490;-38
2022/03/31 01:11:34;;;;;;;22.60;12.40;;;;;;;14.44;46.60;95559.94;5094149;28;20478;-37
2022/03/31 01:14:01;;;;;;;29.23;14.53;;;;;;;14.39;46.88;95557.34;5094385;28;20518;-39
2022/03/31 01:16:31;;;;;;;29.60;14.70;;;;;;;14.27;47.29;95568.47;5094000;28;20911;-38
2022/03/31 01:18:58;;;;;;;22.97;12.37;;;;;;;14.20;47.84;95560.81;5094636;28;20443;-38
2022/03/31 01:21:26;;;;;;;29.00;12.70;;;;;;;14.17;48.17;95556.03;5093994;28;20447;-35
2022/03/31 01:23:56;;;;;;;26.43;12.10;;;;;;;14.17;48.37;95560.59;5093977;28;20542;-38
2022/03/31 01:26:24;;;;;;;22.13;13.17;;;;;;;14.20;48.07;95547.47;5093727;28;20527;-39
2022/03/31 01:28:51;;;;;;;20.73;10.43;;;;;;;14.21;47.83;95550.94;5094259;28;20573;-38
2022/03/31 01:31:20;;;;;;;19.43;10.87;;;;;;;14.19;47.52;95551.22;5093849;28;20442;-38
2022/03/31 01:33:47;;;;;;;28.97;13.03;;;;;;;14.20;47.50;95544.81;5094027;28;20439;-38
2022/03/31 01:36:14;;;;;;;17.53;10.13;;;;;;;14.20;48.03;95531.47;5093707;28;20496;-38
2022/03/31 01:38:42;;;;;;;20.67;11.63;;;;;;;14.19;48.03;95537.88;5093660;28;20450;-38
2022/03/31 01:41:11;;;;;;;25.53;10.97;;;;;;;14.21;47.93;95540.25;5093736;28;20443;-38
2022/03/31 01:43:38;;;;;;;18.43;12.07;;;;;;;14.21;48.21;95546.38;5093608;28;20504;-38
2022/03/31 01:46:08;;;;;;;32.90;10.87;;;;;;;14.24;48.01;95550.34;5093912;28;20858;-39
2022/03/31 01:48:35;;;;;;;18.73;10.73;;;;;;;14.24;47.72;95556.50;5092519;28;20577;-38
2022/03/31 01:51:04;;;;;;;22.27;12.10;;;;;;;14.27;48.04;95550.56;5093534;28;20446;-39
2022/03/31 01:53:32;;;;;;;23.73;11.40;;;;;;;14.24;47.92;95540.47;5093494;28;20450;-39
2022/03/31 01:55:59;;;;;;;18.77;11.53;;;;;;;14.20;48.40;95536.81;5093568;28;20926;-39
2022/03/31 01:58:28;;;;;;;20.23;11.20;;;;;;;14.20;48.60;95536.00;5093566;28;20451;-38
2022/03/31 02:00:57;;;;;;;25.23;11.57;;;;;;;14.18;48.56;95541.63;5089558;28;20509;-39
2022/03/31 02:03:24;;;;;;;20.90;10.50;;;;;;;14.19;48.42;95551.22;5090404;28;20446;-38
2022/03/31 02:05:52;;;;;;;18.50;8.40;;;;;;;14.07;48.13;95522.31;5093707;28;20911;-40
2022/03/31 02:08:20;;;;;;;12.40;7.73;;;;;;;14.23;47.91;95546.88;5093325;28;20536;-38
2022/03/31 02:10:48;;;;;;;16.80;7.90;;;;;;;14.26;47.70;95532.97;5078713;28;20532;-38
2022/03/31 02:13:15;;;;;;;13.00;7.80;;;;;;;14.22;47.66;95537.31;5073080;28;20884;-38
2022/03/31 02:15:44;;;;;;;16.13;8.07;;;;;;;14.33;47.89;95543.28;5073359;28;20449;-39
2022/03/31 02:18:12;;;;;;;15.37;8.40;;;;;;;14.34;47.56;95545.66;5073098;28;20444;-38
2022/03/31 02:20:41;;;;;;;17.70;8.33;;;;;;;14.34;47.99;95524.28;5073035;28;20814;-40
2022/03/31 02:23:09;;;;;;;17.90;6.00;;;;;;;14.33;47.83;95527.25;5073001;28;20444;-39
2022/03/31 02:25:37;;;;;;;20.23;6.70;;;;;;;14.34;47.35;95529.63;5072861;28;20529;-39
2022/03/31 02:28:05;;;;;;;18.80;6.17;;;;;;;14.34;47.24;95528.84;5072889;28;20990;-39
2022/03/31 02:30:32;;;;;;;23.53;8.07;;;;;;;14.32;46.58;95526.44;5072907;28;20432;-39
2022/03/31 02:33:02;;;;;;;23.03;7.67;;;;;;;14.29;47.89;95532.38;5072934;28;20792;-39
2022/03/31 02:35:31;;;;;;;23.80;9.67;;;;;;;14.24;48.46;95529.81;5073510;28;20439;-39
2022/03/31 02:37:58;;;;;;;19.67;9.40;;;;;;;14.22;48.61;95531.97;5073162;28;20444;-39
2022/03/31 02:40:26;;;;;;;29.63;12.50;;;;;;;14.19;48.43;95527.19;5072808;28;20471;-38
2022/03/31 02:42:53;;;;;;;16.13;9.40;;;;;;;14.16;48.47;95532.34;5072870;28;20439;-39
2022/03/31 02:45:21;;;;;;;23.07;10.70;;;;;;;14.16;48.85;95537.66;5072809;28;20448;-39
2022/03/31 02:47:48;;;;;;;24.03;9.70;;;;;;;14.14;48.87;95524.59;5073079;28;20443;-39
2022/03/31 02:50:18;;;;;;;33.73;10.00;;;;;;;14.14;48.49;95530.72;5072750;28;20492;-38
2022/03/31 02:55:31;;;;;;;23.73;10.70;;;;;;;14.16;48.47;95535.78;5073001;28;20481;-39
2022/03/31 02:58:01;;;;;;;24.97;9.73;;;;;;;14.16;48.97;95525.13;5073782;28;20787;-39
2022/03/31 03:00:32;;;;;;;17.70;8.30;;;;;;;14.13;49.06;95513.16;5074299;28;20523;-39
2022/03/31 03:03:00;;;;;;;22.43;7.83;;;;;;;14.08;49.05;95520.44;5076293;28;20432;-38
2022/03/31 03:05:28;;;;;;;20.50;6.63;;;;;;;14.09;48.94;95514.03;5076328;28;20954;-37
2022/03/31 03:07:56;;;;;;;16.67;5.67;;;;;;;14.09;48.58;95527.38;5076181;28;20874;-39
2022/03/31 03:10:24;;;;;;;11.57;5.90;;;;;;;14.09;48.18;95516.69;5076209;28;20526;-39
2022/03/31 03:12:51;;;;;;;21.13;5.50;;;;;;;14.09;48.00;95503.34;5076501;28;20436;-38
2022/03/31 03:15:19;;;;;;;17.53;6.43;;;;;;;14.13;47.70;95501.66;5076204;28;20486;-38
2022/03/31 03:17:48;;;;;;;16.40;5.13;;;;;;;14.17;47.49;95524.00;5076121;28;20480;-39
2022/03/31 03:20:17;;;;;;;16.27;7.13;;;;;;;14.18;47.90;95520.28;5076357;28;20489;-39
2022/03/31 03:22:48;;;;;;;15.90;8.00;;;;;;;14.20;48.31;95522.66;5076247;28;20470;-39
2022/03/31 03:25:17;;;;;;;25.40;9.57;;;;;;;14.19;48.62;95513.84;5075761;28;20471;-39
2022/03/31 03:27:46;;;;;;;13.80;9.33;;;;;;;14.17;49.24;95505.34;5076001;28;20534;-39
2022/03/31 03:30:14;;;;;;;18.73;8.63;;;;;;;14.12;49.42;95497.41;5075801;28;20990;-39
2022/03/31 03:32:42;;;;;;;16.97;10.03;;;;;;;13.95;49.08;95478.47;5079189;28;20790;-39
2022/03/31 03:35:11;;;;;;;35.27;14.30;;;;;;;14.05;49.17;95483.66;5075785;28;20997;-38
2022/03/31 03:37:39;;;;;;;20.60;12.20;;;;;;;14.04;49.33;95487.38;5092567;28;20478;-39
2022/03/31 03:40:12;;;;;;;21.93;9.33;;;;;;;14.02;49.68;95494.88;5096212;28;20467;-39
2022/03/31 03:42:40;;;;;;;16.23;9.40;;;;;;;13.99;49.22;95490.16;5092994;28;20440;-39
2022/03/31 03:45:08;;;;;;;16.43;8.47;;;;;;;13.97;49.23;95492.31;5075599;28;20528;-39
2022/03/31 03:47:36;;;;;;;23.43;8.10;;;;;;;13.96;48.68;95491.53;5075534;28;20440;-39
2022/03/31 03:50:03;;;;;;;21.43;8.13;;;;;;;13.97;48.24;95487.75;5075449;28;20579;-39
2022/03/31 03:52:31;;;;;;;15.20;7.87;;;;;;;13.95;48.62;95497.13;5075432;28;20455;-39
2022/03/31 03:54:58;;;;;;;11.23;5.60;;;;;;;13.91;48.42;95500.38;5075423;28;20444;-38
2022/03/31 03:57:27;;;;;;;23.97;10.37;;;;;;;13.88;49.38;95495.63;5075661;28;20977;-39
2022/03/31 03:59:56;;;;;;;37.17;12.40;;;;;;;13.81;49.46;95499.72;5075551;28;20494;-39
2022/03/31 04:02:23;;;;;;;27.27;10.80;;;;;;;13.75;49.52;95496.34;5075429;28;20444;-38
2022/03/31 04:04:50;;;;;;;33.90;10.77;;;;;;;13.72;49.60;95486.22;5075189;28;20865;-38
2022/03/31 04:07:18;;;;;;;29.27;11.93;;;;;;;13.62;49.75;95470.38;5075207;28;20440;-39
2022/03/31 04:09:45;;;;;;;24.90;11.13;;;;;;;13.53;49.83;95456.91;5074882;28;20494;-39
2022/03/31 04:12:13;;;;;;;29.13;11.33;;;;;;;13.60;49.94;95472.56;5074412;28;20447;-40
2022/03/31 04:14:42;;;;;;;26.20;11.53;;;;;;;13.58;50.14;95480.03;5075079;28;20963;-39
2022/03/31 04:17:09;;;;;;;33.07;9.60;;;;;;;13.58;50.21;95474.72;5075214;28;20448;-39
2022/03/31 04:19:37;;;;;;;25.23;11.40;;;;;;;13.52;50.25;95476.63;5074908;28;20487;-39
2022/03/31 04:22:05;;;;;;;29.07;11.10;;;;;;;13.40;50.45;95458.41;5074802;28;20448;-38
2022/03/31 04:24:32;;;;;;;35.50;12.80;;;;;;;13.43;51.21;95471.16;5086835;28;20446;-38
2022/03/31 04:26:59;;;;;;;19.87;7.97;;;;;;;13.23;51.67;95452.75;5094957;28;20462;-38
2022/03/31 04:29:27;;;;;;;22.67;11.70;;;;;;;13.11;52.28;95471.78;5094695;28;20875;-39
2022/03/31 04:31:56;;;;;;;41.03;20.50;;;;;;;13.07;52.25;95468.09;5094773;28;20443;-39
2022/03/31 04:34:23;;;;;;;35.17;16.47;;;;;;;13.03;52.06;95470.53;5095037;28;20938;-39
2022/03/31 04:36:51;;;;;;;40.77;19.67;;;;;;;13.06;51.80;95459.31;5094798;28;20530;-39
2022/03/31 04:39:18;;;;;;;34.13;17.63;;;;;;;12.95;51.77;95444.53;5094928;28;20451;-38
2022/03/31 04:41:45;;;;;;;47.93;19.57;;;;;;;13.01;52.44;95445.25;5094674;28;20439;-39
2022/03/31 04:44:13;;;;;;;51.57;20.33;;;;;;;13.07;52.16;95460.09;5095047;28;20435;-39
2022/03/31 04:46:40;;;;;;;36.57;19.67;;;;;;;13.16;52.02;95452.28;5094711;28;20530;-39
2022/03/31 04:49:09;;;;;;;38.67;16.80;;;;;;;13.26;51.68;95450.28;5094505;28;20502;-39
2022/03/31 04:51:36;;;;;;;52.87;21.77;;;;;;;13.37;51.24;95458.97;5094447;28;20879;-38
2022/03/31 04:54:04;;;;;;;48.70;23.67;;;;;;;13.43;51.83;95463.16;5094395;28;20446;-39
2022/03/31 04:56:31;;;;;;;40.87;21.23;;;;;;;13.46;51.54;95478.56;5094448;28;20937;-39
2022/03/31 04:58:59;;;;;;;36.87;21.70;;;;;;;13.43;51.24;95447.16;5094633;28;20487;-39
2022/03/31 05:01:26;;;;;;;44.43;20.87;;;;;;;13.75;51.29;95461.66;5094266;28;20962;-39
2022/03/31 05:03:55;;;;;;;51.73;24.47;;;;;;;13.96;50.79;95466.69;5094157;28;20435;-39
2022/03/31 05:06:23;;;;;;;34.30;20.97;;;;;;;14.03;50.67;95459.91;5094208;28;20851;-39
2022/03/31 05:08:51;;;;;;;40.27;22.63;;;;;;;14.04;50.69;95469.50;5094057;28;20921;-39
2022/03/31 05:11:19;;;;;;;49.83;24.83;;;;;;;14.05;50.68;95478.31;5094445;28;20927;-39
2022/03/31 05:13:46;;;;;;;58.73;29.67;;;;;;;14.08;50.54;95469.72;5094138;28;20451;-39
2022/03/31 05:16:16;;;;;;;70.40;33.47;;;;;;;14.10;50.78;95476.34;5094369;28;20446;-39
2022/03/31 05:18:45;;;;;;;50.40;24.10;;;;;;;14.13;50.89;95466.97;5093967;28;20475;-39
2022/03/31 05:21:13;;;;;;;52.57;25.57;;;;;;;14.13;50.79;95469.63;5093981;28;20446;-39
2022/03/31 05:23:42;;;;;;;47.37;22.30;;;;;;;14.15;50.81;95462.13;5094054;28;20461;-39
2022/03/31 05:26:09;;;;;;;57.67;25.87;;;;;;;14.17;51.08;95465.31;5093893;28;20471;-39
2022/03/31 05:28:36;;;;;;;54.90;29.87;;;;;;;14.18;51.18;95469.56;5093824;28;20803;-39
2022/03/31 05:31:03;;;;;;;55.93;25.30;;;;;;;14.21;51.62;95470.84;5093719;28;20486;-39
2022/03/31 05:33:31;;;;;;;42.63;20.87;;;;;;;14.25;51.51;95483.31;5094331;28;20439;-38
2022/03/31 05:35:59;;;;;;;39.63;18.87;;;;;;;14.30;51.02;95485.13;5093808;28;20449;-39
2022/03/31 05:38:27;;;;;;;55.23;23.87;;;;;;;14.36;50.72;95483.16;5093679;28;20443;-39
2022/03/31 05:40:55;;;;;;;52.90;23.80;;;;;;;14.36;50.57;95483.16;5093659;28;20533;-40
2022/03/31 05:43:24;;;;;;;52.70;29.40;;;;;;;14.47;50.81;95489.91;5093980;28;20438;-40
2022/03/31 05:45:51;;;;;;;60.43;26.43;;;;;;;14.52;51.53;95487.97;5094097;28;20468;-39
2022/03/31 05:48:18;;;;;;;89.90;36.53;;;;;;;14.54;51.95;95490.34;5093555;28;20447;-39
2022/03/31 05:50:45;;;;;;;305.50;120.07;;;;;;;14.55;51.83;95483.94;5093757;28;20566;-39
2022/03/31 05:53:13;;;;;;;114.33;55.03;;;;;;;14.58;51.83;95479.88;5093578;28;20938;-39
2022/03/31 05:55:43;;;;;;;58.20;32.43;;;;;;;14.61;51.89;95479.31;5093867;28;20465;-39
2022/03/31 05:58:12;;;;;;;56.10;24.60;;;;;;;14.66;52.00;95488.03;5094082;28;20526;-39
2022/03/31 06:00:39;;;;;;;41.97;23.90;;;;;;;14.73;51.25;95483.09;5093719;28;20442;-39
2022/03/31 06:03:07;;;;;;;49.90;24.13;;;;;;;14.66;51.67;95488.03;5093742;28;20438;-39
2022/03/31 06:05:34;;;;;;;42.03;18.70;;;;;;;14.73;51.28;95495.66;5093757;28;20544;-39
2022/03/31 06:08:01;;;;;;;37.67;17.73;;;;;;;14.77;51.63;95493.19;5093352;28;20439;-38
2022/03/31 06:10:29;;;;;;;31.47;17.43;;;;;;;14.79;50.83;95491.03;5093650;28;21016;-38
2022/03/31 06:12:56;;;;;;;36.43;17.40;;;;;;;14.80;50.35;95481.91;5093703;28;20774;-39
2022/03/31 06:15:25;;;;;;;31.23;17.43;;;;;;;14.83;50.30;95492.03;5093406;28;20525;-39
2022/03/31 06:17:52;;;;;;;41.23;16.23;;;;;;;14.84;50.09;95493.59;5093339;28;20439;-39
2022/03/31 06:20:19;;;;;;;29.47;18.07;;;;;;;14.88;50.47;95497.25;5093256;28;20439;-39
2022/03/31 06:22:47;;;;;;;31.00;16.30;;;;;;;14.94;49.77;95509.44;5093905;28;20493;-39
2022/03/31 06:25:14;;;;;;;33.63;15.60;;;;;;;14.98;50.34;95505.09;5093112;28;20478;-39
2022/03/31 06:27:42;;;;;;;30.67;15.97;;;;;;;15.03;50.88;95510.34;5093208;28;20466;-38
2022/03/31 06:30:11;;;;;;;28.00;13.83;;;;;;;15.12;49.86;95511.25;5093491;28;20517;-39
2022/03/31 06:32:40;;;;;;;39.60;19.53;;;;;;;15.20;49.91;95517.00;5093235;28;20443;-39
2022/03/31 06:35:14;;;;;;;57.97;26.90;;;;;;;15.31;50.02;95502.34;5094600;28;20862;-38
2022/03/31 06:37:41;;;;;;;47.10;26.80;;;;;;;15.42;49.98;95509.06;5097212;28;20430;-39
2022/03/31 06:40:12;;;;;;;38.57;21.20;;;;;;;15.51;50.53;95509.19;5097309;28;20439;-37
2022/03/31 06:42:40;;;;;;;32.77;16.03;;;;;;;15.49;50.84;95509.47;5097326;28;20506;-39
2022/03/31 06:45:12;;;;;;;31.30;13.37;;;;;;;15.65;50.61;95506.47;5096960;28;20442;-39
2022/03/31 06:47:41;;;;;;;19.60;7.23;;;;;;;15.72;50.12;95514.91;5096963;28;20863;-39
2022/03/31 06:50:09;;;;;;;21.03;9.27;;;;;;;15.64;49.84;95494.19;5097121;28;20490;-41
2022/03/31 06:52:37;;;;;;;16.47;8.67;;;;;;;15.81;50.12;95510.47;5096725;28;20973;-39
2022/03/31 06:55:05;;;;;;;18.30;7.70;;;;;;;15.87;50.07;95508.44;5096835;28;20450;-39
2022/03/31 06:57:32;;;;;;;25.30;8.67;;;;;;;15.77;50.66;95482.72;5097767;28;20450;-39
2022/03/31 07:00:00;;;;;;;21.93;8.93;;;;;;;15.89;51.62;95501.69;5096758;28;20458;-40
2022/03/31 07:02:27;;;;;;;31.53;9.80;;;;;;;16.06;52.98;95510.97;5096712;28;20447;-39
2022/03/31 07:04:56;;;;;;;17.40;9.03;;;;;;;16.07;53.10;95513.38;5096555;28;20541;-38
2022/03/31 07:07:24;;;;;;;26.93;9.50;;;;;;;16.11;52.86;95524.25;5096884;28;20439;-38
2022/03/31 07:09:52;;;;;;;18.87;7.77;;;;;;;16.10;52.79;95517.31;5096750;28;20895;-39
2022/03/31 07:12:19;;;;;;;22.93;10.13;;;;;;;16.08;53.29;95508.78;5096551;28;20442;-38
2022/03/31 07:14:47;;;;;;;19.63;9.53;;;;;;;16.06;55.06;95527.03;5096472;28;20509;-39
2022/03/31 07:17:14;;;;;;;30.17;8.00;;;;;;;16.04;55.90;95521.97;5096308;28;20485;-39
2022/03/31 07:19:41;;;;;;;65.23;29.67;;;;;;;16.08;56.01;95509.56;5096339;28;20483;-40
2022/03/31 07:22:10;;;;;;;48.63;32.43;;;;;;;16.11;56.84;95492.09;5096606;28;20446;-39
2022/03/31 07:24:37;;;;;;;32.63;14.70;;;;;;;16.15;57.17;95487.72;5096337;28;20443;-39
2022/03/31 07:27:05;;;;;;;25.10;8.10;;;;;;;16.21;58.32;95486.53;5096037;28;20435;-39
2022/03/31 07:29:32;;;;;;;23.57;8.87;;;;;;;16.28;57.75;95465.50;5096005;28;20518;-39
2022/03/31 07:31:59;;;;;;;25.53;12.47;;;;;;;16.24;57.84;95461.84;5096090;28;20478;-39
2022/03/31 07:34:27;;;;;;;34.77;10.83;;;;;;;16.40;57.30;95472.97;5096266;28;20448;-40
2022/03/31 07:36:54;;;;;;;31.67;10.90;;;;;;;16.45;56.98;95478.19;5096226;28;20466;-39
2022/03/31 07:39:23;;;;;;;33.97;17.20;;;;;;;16.52;56.32;95491.16;5095944;28;20447;-38
2022/03/31 07:41:50;;;;;;;151.77;65.20;;;;;;;16.55;55.80;95490.56;5096013;28;20447;-39
2022/03/31 07:44:17;;;;;;;76.27;35.70;;;;;;;16.52;55.04;95475.06;5096216;28;20442;-40
2022/03/31 07:46:46;;;;;;;84.20;40.57;;;;;;;16.65;54.13;95494.84;5095951;28;20449;-40
2022/03/31 07:49:14;;;;;;;35.07;16.60;;;;;;;16.67;54.17;95512.22;5095735;28;20435;-39
2022/03/31 07:51:41;;;;;;;28.63;14.23;;;;;;;16.70;53.59;95514.28;5095963;28;20494;-38
2022/03/31 07:54:08;;;;;;;44.10;15.80;;;;;;;16.74;53.72;95525.19;5096048;28;20443;-38
2022/03/31 07:56:37;;;;;;;39.63;12.57;;;;;;;16.76;53.78;95523.78;5095612;28;20439;-40
2022/03/31 07:59:06;;;;;;;31.60;9.67;;;;;;;16.79;53.72;95527.72;5095737;28;20525;-39
2022/03/31 08:01:34;;;;;;;19.23;9.23;;;;;;;16.84;54.38;95529.50;5095838;28;20435;-39
2022/03/31 08:04:03;;;;;;;24.27;13.33;;;;;;;16.85;53.23;95533.78;5095366;28;20447;-39
2022/03/31 08:06:31;;;;;;;40.47;10.17;;;;;;;16.88;52.69;95523.22;5095777;28;20801;-39
2022/03/31 08:08:58;;;;;;;24.47;7.03;;;;;;;16.97;51.56;95523.28;5095363;28;20451;-39
2022/03/31 08:11:25;;;;;;;19.03;5.67;;;;;;;17.07;51.99;95533.75;5095191;28;20497;-39
2022/03/31 08:13:54;;;;;;;19.70;7.07;;;;;;;17.14;52.23;95539.47;5095134;28;20530;-39
2022/03/31 08:16:22;;;;;;;19.77;9.00;;;;;;;17.23;52.43;95526.09;5095166;28;20488;-39
2022/03/31 08:18:49;;;;;;;19.40;9.50;;;;;;;17.33;51.75;95527.69;5095503;28;20446;-38
2022/03/31 08:21:17;;;;;;;26.37;8.43;;;;;;;17.43;50.67;95516.69;5095190;28;20443;-39
2022/03/31 08:23:44;;;;;;;24.40;6.67;;;;;;;17.59;50.73;95501.75;5095061;28;20450;-40
2022/03/31 08:26:11;;;;;;;15.93;5.63;;;;;;;17.78;49.73;95501.47;5094750;28;20475;-39
2022/03/31 08:28:39;;;;;;;13.03;5.23;;;;;;;17.88;48.97;95503.09;5095261;28;20516;-39
2022/03/31 08:31:07;;;;;;;13.17;4.53;;;;;;;17.99;48.51;95501.69;5095258;28;20582;-40
2022/03/31 08:33:35;;;;;;;17.03;4.17;;;;;;;18.10;47.85;95504.06;5094879;28;20923;-39
2022/03/31 08:36:02;;;;;;;12.53;4.10;;;;;;;18.17;47.83;95499.00;5094863;28;20442;-39
2022/03/31 08:38:29;;;;;;;15.30;4.37;;;;;;;18.21;46.88;95481.16;5094608;28;20443;-39
2022/03/31 08:40:57;;;;;;;14.43;5.30;;;;;;;18.43;46.64;95490.94;5094687;28;20451;-39
2022/03/31 08:43:27;;;;;;;19.60;5.93;;;;;;;18.66;46.16;95493.44;5094867;28;20447;-36
2022/03/31 08:45:57;;;;;;;19.57;6.70;;;;;;;18.87;45.34;95482.81;5094939;28;20428;-39
2022/03/31 08:48:27;;;;;;;17.27;4.20;;;;;;;19.17;45.01;95508.66;5095307;28;20530;-39
2022/03/31 08:50:54;;;;;;;20.20;4.90;;;;;;;19.21;44.58;95509.59;5094494;28;20482;-38
2022/03/31 08:53:22;;;;;;;15.50;5.63;;;;;;;19.27;44.14;95506.72;5094834;28;20471;-39
2022/03/31 08:55:49;;;;;;;15.10;4.80;;;;;;;19.39;43.29;95496.84;5094479;28;20918;-35
2022/03/31 08:58:16;;;;;;;16.50;5.90;;;;;;;19.72;43.09;95501.59;5094045;28;20439;-39
2022/03/31 09:00:44;;;;;;;11.17;4.07;;;;;;;19.93;42.37;95482.78;5094279;28;20453;-39
2022/03/31 09:03:11;;;;;;;19.90;4.73;;;;;;;20.04;42.07;95480.50;5094346;28;20439;-35
2022/03/31 09:05:42;;;;;;;21.30;4.30;;;;;;;20.19;42.26;95481.78;5094341;28;20443;-39
2022/03/31 09:08:12;;;;;;;21.57;5.13;;;;;;;20.38;42.53;95490.19;5094208;28;20510;-40
2022/03/31 09:10:42;;;;;;;19.57;5.13;;;;;;;20.43;42.36;95476.53;5094196;28;20467;-36
2022/03/31 09:13:20;;;;;;;18.90;5.50;;;;;;;20.82;42.35;95487.91;5094524;28;20431;-39
2022/03/31 09:15:52;;;;;;;11.70;5.03;;;;;;;21.04;41.17;95488.63;5094473;28;20779;-40
2022/03/31 09:18:21;;;;;;;18.70;6.07;;;;;;;21.14;40.53;95484.69;5094429;28;20815;-39
2022/03/31 09:20:52;;;;;;;13.03;4.07;;;;;;;21.21;39.52;95472.22;5094397;28;20782;-37
2022/03/31 09:23:21;;;;;;;19.90;5.40;;;;;;;21.36;39.64;95468.06;5094043;28;20427;-37
2022/03/31 09:25:50;;;;;;;21.63;5.90;;;;;;;21.39;39.23;95483.59;5093859;28;20562;-37
2022/03/31 09:28:20;;;;;;;19.13;4.83;;;;;;;21.22;38.42;95479.19;5093821;28;20500;-37
2022/03/31 09:30:50;;;;;;;27.17;5.50;;;;;;;21.26;39.47;95466.59;5094005;28;20502;-38
2022/03/31 09:33:28;;;;;;;27.13;4.40;;;;;;;21.29;39.40;95473.22;5093916;28;20932;-40
2022/03/31 09:36:02;;;;;;;17.97;4.97;;;;;;;21.38;39.09;95460.44;5094155;28;20446;-39
2022/03/31 09:38:32;;;;;;;11.23;5.43;;;;;;;21.46;39.80;95464.94;5093935;28;20428;-38
2022/03/31 09:41:01;;;;;;;17.50;4.20;;;;;;;21.45;39.70;95446.41;5094234;28;20443;-39
2022/03/31 09:43:37;;;;;;;14.30;5.03;;;;;;;21.50;39.62;95445.38;5093678;28;20439;-39
2022/03/31 09:46:05;;;;;;;21.63;4.73;;;;;;;21.31;39.08;95448.59;5093743;28;20924;-39
2022/03/31 09:48:32;;;;;;;18.17;4.53;;;;;;;21.33;39.42;95446.38;5093871;28;20454;-39
2022/03/31 09:51:01;;;;;;;19.27;4.40;;;;;;;21.19;39.43;95442.09;5093478;28;20487;-35
2022/03/31 09:53:32;;;;;;;31.77;5.40;;;;;;;20.95;39.22;95429.38;5093592;28;20443;-38
2022/03/31 09:56:02;;;;;;;20.63;5.40;;;;;;;20.84;40.60;95431.72;5093543;28;20431;-36
2022/03/31 09:58:31;;;;;;;21.27;5.80;;;;;;;20.75;39.71;95417.53;5093862;28;20443;-39
2022/03/31 10:00:58;;;;;;;21.20;6.30;;;;;;;20.68;40.18;95411.91;5093464;28;20447;-39
2022/03/31 10:03:25;;;;;;;19.33;6.17;;;;;;;20.77;40.53;95411.81;5093493;28;20443;-38
2022/03/31 10:05:54;;;;;;;19.13;6.60;;;;;;;20.76;40.94;95408.34;5093828;28;20439;-39
2022/03/31 10:08:23;;;;;;;19.00;4.10;;;;;;;20.88;40.72;95398.69;5093445;28;20919;-39
2022/03/31 10:10:52;;;;;;;23.07;7.93;;;;;;;20.78;40.15;95398.00;5095675;28;20514;-39
2022/03/31 10:13:22;;;;;;;11.20;3.70;;;;;;;20.99;40.60;95413.28;5097565;28;20454;-39
2022/03/31 10:15:56;;;;;;;23.50;5.67;;;;;;;20.97;39.83;95413.66;5097894;28;20443;-39
2022/03/31 10:18:24;;;;;;;19.17;5.37;;;;;;;21.01;40.27;95405.66;5097857;28;20458;-39
2022/03/31 10:20:57;;;;;;;17.37;5.47;;;;;;;20.96;39.83;95389.69;5097571;28;20455;-39
2022/03/31 10:26:23;;;;;;;18.67;5.50;;;;;;;21.08;39.62;95395.09;5097383;28;20461;-40
2022/03/31 10:28:57;;;;;;;18.43;5.67;;;;;;;20.98;39.89;95371.28;5097717;28;20431;-39
2022/03/31 10:31:35;;;;;;;11.23;5.50;;;;;;;20.92;40.20;95372.59;5097172;28;20485;-38
2022/03/31 10:34:03;;;;;;;13.57;4.60;;;;;;;20.81;40.32;95369.56;5097318;28;20427;-39
2022/03/31 10:36:38;;;;;;;21.50;6.10;;;;;;;21.02;39.92;95366.78;5097515;28;20450;-39
2022/03/31 10:39:15;;;;;;;22.40;7.40;;;;;;;21.01;39.93;95365.19;5097196;28;20426;-39
2022/03/31 10:41:44;;;;;;;23.20;6.30;;;;;;;21.03;40.29;95377.22;5097257;28;20894;-39
2022/03/31 10:44:19;;;;;;;30.33;6.67;;;;;;;20.93;40.53;95360.69;5097071;28;20439;-39
2022/03/31 10:46:48;;;;;;;25.33;5.70;;;;;;;21.03;40.02;95379.13;5097030;28;20945;-38
2022/03/31 10:49:20;;;;;;;16.67;4.60;;;;;;;21.16;40.35;95380.69;5096932;28;20821;-39
2022/03/31 10:51:48;;;;;;;26.83;8.77;;;;;;;21.25;39.81;95364.38;5096856;28;20996;-37
2022/03/31 10:54:27;;;;;;;40.07;10.90;;;;;;;21.26;39.86;95372.13;5096949;28;20786;-39
2022/03/31 10:57:09;;;;;;;19.03;5.27;;;;;;;21.32;39.94;95367.31;5097174;28;20484;-39
2022/03/31 10:59:38;;;;;;;14.40;5.33;;;;;;;21.30;39.90;95372.25;5097242;28;20430;-39
2022/03/31 11:02:10;;;;;;;13.10;5.10;;;;;;;21.25;39.79;95378.69;5096690;28;20526;-39
2022/03/31 11:04:49;;;;;;;25.43;6.33;;;;;;;21.32;40.18;95366.53;5096512;28;20478;-40
2022/03/31 11:07:18;;;;;;;26.33;7.10;;;;;;;21.33;39.42;95366.16;5096681;28;20522;-39
2022/03/31 11:09:47;;;;;;;32.67;6.30;;;;;;;21.36;39.84;95375.50;5096469;28;20559;-38
2022/03/31 11:12:27;;;;;;;22.53;4.90;;;;;;;21.34;40.11;95372.34;5096288;28;20509;-39
2022/03/31 11:14:56;;;;;;;27.60;7.83;;;;;;;21.24;39.80;95370.91;5096364;28;20544;-39
2022/03/31 11:17:24;;;;;;;33.93;7.20;;;;;;;21.24;39.67;95366.28;5096663;28;20443;-36
2022/03/31 11:19:53;;;;;;;23.33;5.77;;;;;;;21.19;40.29;95353.03;5097246;28;20468;-39
2022/03/31 11:22:22;;;;;;;15.93;5.30;;;;;;;21.25;39.91;95358.97;5096109;28;20445;-39
2022/03/31 11:24:51;;;;;;;17.13;7.03;;;;;;;21.36;39.85;95348.50;5096623;28;20629;-39
2022/03/31 11:27:37;;;;;;;18.93;5.50;;;;;;;21.49;39.66;95347.41;5096497;28;20424;-39
2022/03/31 11:30:06;;;;;;;10.93;5.27;;;;;;;21.43;39.58;95346.06;5096164;28;20428;-39
2022/03/31 11:32:35;;;;;;;19.00;5.67;;;;;;;21.48;39.98;95353.91;5096471;28;20501;-38
2022/03/31 11:35:02;;;;;;;13.37;6.00;;;;;;;21.62;40.36;95356.25;5096055;28;20447;-40
2022/03/31 11:37:29;;;;;;;19.77;4.60;;;;;;;21.79;39.76;95360.56;5096058;28;20443;-39
2022/03/31 11:39:58;;;;;;;13.07;4.60;;;;;;;21.85;39.44;95367.31;5096023;28;20442;-39
2022/03/31 11:42:25;;;;;;;12.27;5.37;;;;;;;21.88;39.44;95369.34;5096248;28;20526;-39
2022/03/31 11:44:53;;;;;;;24.10;6.80;;;;;;;21.74;39.08;95374.31;5095924;28;20534;-38
2022/03/31 11:47:24;;;;;;;10.77;4.70;;;;;;;21.77;39.37;95379.03;5096551;28;20526;-39
2022/03/31 11:50:01;;;;;;;22.17;5.90;;;;;;;21.89;39.22;95379.78;5095948;28;20465;-38